Kezdőlap
METAR-TAF:

METAR-TAF

Repülőterek :

Duncan Municipal Airport (Halliburton Field)

Duncan, Oklahoma, Amerikai Egyesült Államok

földrajzi szélesség: 34-28-15N, földrajzi hosszúság: 097-57-36W, magasság: 339 m

Jelenlegi meteorológiai megfigyelések

A jelentés 24 perccel ezelõtt készült, 10:55 UTC
Kelet-délkeleti szél 3 kt
Hőmérséklet 21°C
Páratartalom 88%
Légköri nyomás 1016 hPa
Látótávolság: 16.1 km
Derült ég

METAR: KDUC 151055Z AUTO 11003KT 10SM CLR 21/19 A2999 RMK AO2 T02120192

Idő: 06:19 (11:19 UTC)


TAF: hiányzik

Meteorológiai megfigyelések és előrejelzések több, mint 4000 repülőtéren (METAR és TAF jelentéseket).

A térképen piros és sárga pontok jelzik az elérhető meteorológiai állomásokat.

Mozgassa az egeret a pont fölött, hogy megjelenjen az állomás neve.

Azután kattintson az időjárási megfigyelések és előrejelzések megtekintéséhez.

A térkép megváltoztatása: kattintson a fekete keresztel jelölt zöld gombra ráközelítéshez, a vonallal jelölt zöld gombra távolításhoz, vagy a zöld nyilakra a szomszédos térképek eléréséhez.


METAR-TAF: